GLO1840 SBGL-SBVT
Flight info
| Callsign | GLO1840 |
|---|---|
| Flight time | 0h 45m |
| Altitude | 29000 |
| Route | TISVA UL206 TODET |
| Aircraft | B738/M-SDE2E3FGHIRWXY/LB1 |
Departure
| Time | 2026-04-24 22:47 |
|---|---|
| Airport | Rio Galeão – Tom Jobim International Airport (SBGL) |
Arrival
| Time | 2026-04-24 23:32 |
|---|---|
| Airport | Eurico de Aguiar Salles International Airport (SBVT) |
| Time | Latitude | Longitude | Altitude | Speed | Heading |
|---|---|---|---|---|---|
| 2026-04-24 22:21 | -22.80994 | -43.25319 | 31 ft | 0 kts | 108° |
| 2026-04-24 22:25 | -22.80994 | -43.25320 | 31 ft | 0 kts | 108° |
| 2026-04-24 22:37 | -22.80989 | -43.25335 | 30 ft | 2 kts | 108° |
| 2026-04-24 22:37 | -22.80984 | -43.25350 | 30 ft | 2 kts | 108° |
| 2026-04-24 22:38 | -22.80979 | -43.25365 | 30 ft | 2 kts | 129° |
| 2026-04-24 22:38 | -22.80967 | -43.25374 | 30 ft | 1 kts | 162° |
| 2026-04-24 22:38 | -22.80962 | -43.25376 | 30 ft | 0 kts | 158° |
| 2026-04-24 22:40 | -22.80963 | -43.25375 | 30 ft | 1 kts | 159° |
| 2026-04-24 22:40 | -22.80996 | -43.25400 | 29 ft | 10 kts | 264° |
| 2026-04-24 22:40 | -22.80954 | -43.25465 | 28 ft | 9 kts | 317° |
| 2026-04-24 22:41 | -22.80915 | -43.25526 | 27 ft | 9 kts | 295° |
| 2026-04-24 22:41 | -22.80889 | -43.25589 | 27 ft | 8 kts | 288° |
| 2026-04-24 22:41 | -22.80905 | -43.25646 | 27 ft | 8 kts | 229° |
| 2026-04-24 22:41 | -22.80964 | -43.25695 | 27 ft | 11 kts | 215° |
| 2026-04-24 22:42 | -22.81032 | -43.25749 | 26 ft | 12 kts | 216° |
| 2026-04-24 22:42 | -22.81101 | -43.25803 | 25 ft | 10 kts | 215° |
| 2026-04-24 22:42 | -22.81159 | -43.25847 | 24 ft | 9 kts | 215° |
| 2026-04-24 22:42 | -22.81214 | -43.25889 | 24 ft | 9 kts | 217° |
| 2026-04-24 22:43 | -22.81253 | -43.25951 | 24 ft | 10 kts | 233° |
| 2026-04-24 22:43 | -22.81276 | -43.25980 | 23 ft | 0 kts | 226° |
| 2026-04-24 22:43 | -22.81283 | -43.25988 | 22 ft | 4 kts | 229° |
| 2026-04-24 22:43 | -22.81282 | -43.26041 | 21 ft | 8 kts | 299° |
| 2026-04-24 22:44 | -22.81247 | -43.26094 | 21 ft | 8 kts | 306° |
| 2026-04-24 22:44 | -22.81208 | -43.26151 | 21 ft | 9 kts | 305° |
| 2026-04-24 22:44 | -22.81168 | -43.26211 | 20 ft | 10 kts | 306° |
| 2026-04-24 22:44 | -22.81127 | -43.26274 | 19 ft | 10 kts | 297° |
| 2026-04-24 22:45 | -22.81126 | -43.26327 | 19 ft | 0 kts | 244° |
| 2026-04-24 22:45 | -22.81126 | -43.26328 | 19 ft | 0 kts | 244° |
| 2026-04-24 22:45 | -22.81129 | -43.26334 | 19 ft | 2 kts | 238° |
| 2026-04-24 22:45 | -22.81152 | -43.26353 | 18 ft | 5 kts | 198° |
| 2026-04-24 22:46 | -22.81193 | -43.26348 | 18 ft | 5 kts | 163° |
| 2026-04-24 22:46 | -22.81231 | -43.26335 | 18 ft | 6 kts | 162° |
| 2026-04-24 22:46 | -22.81278 | -43.26309 | 18 ft | 11 kts | 137° |
| 2026-04-24 22:46 | -22.81390 | -43.26147 | 21 ft | 54 kts | 126° |
| 2026-04-24 22:47 | -22.81760 | -43.25596 | 23 ft | 125 kts | 126° |
| 2026-04-24 22:47 | -22.82408 | -43.24631 | 56 ft | 183 kts | 126° |
| 2026-04-24 22:47 | -22.83138 | -43.23495 | 751 ft | 187 kts | 122° |
| 2026-04-24 22:47 | -22.83702 | -43.22278 | 1697 ft | 183 kts | 106° |
| 2026-04-24 22:48 | -22.83937 | -43.20882 | 2264 ft | 199 kts | 88° |
| 2026-04-24 22:48 | -22.83713 | -43.19414 | 2984 ft | 198 kts | 70° |
| 2026-04-24 22:48 | -22.83058 | -43.18041 | 3355 ft | 218 kts | 54° |
| 2026-04-24 22:48 | -22.82042 | -43.16745 | 3653 ft | 235 kts | 46° |
| 2026-04-24 22:49 | -22.80881 | -43.15403 | 3769 ft | 251 kts | 48° |
| 2026-04-24 22:49 | -22.79790 | -43.13878 | 4128 ft | 252 kts | 58° |
| 2026-04-24 22:49 | -22.79004 | -43.12207 | 4526 ft | 248 kts | 66° |
| 2026-04-24 22:49 | -22.78375 | -43.10440 | 4708 ft | 256 kts | 68° |
| 2026-04-24 22:50 | -22.77687 | -43.08589 | 5163 ft | 278 kts | 65° |
| 2026-04-24 22:50 | -22.76907 | -43.06719 | 6348 ft | 269 kts | 63° |
| 2026-04-24 22:50 | -22.76121 | -43.04915 | 7318 ft | 268 kts | 63° |
| 2026-04-24 22:50 | -22.75337 | -43.03113 | 8163 ft | 271 kts | 66° |
| 2026-04-24 22:51 | -22.74728 | -43.01138 | 8794 ft | 284 kts | 73° |
| 2026-04-24 22:51 | -22.74279 | -42.99039 | 9614 ft | 288 kts | 76° |
| 2026-04-24 22:51 | -22.73867 | -42.96899 | 10367 ft | 294 kts | 76° |
| 2026-04-24 22:51 | -22.73434 | -42.94707 | 10861 ft | 309 kts | 76° |
| 2026-04-24 22:52 | -22.72952 | -42.92377 | 11313 ft | 324 kts | 75° |
| 2026-04-24 22:52 | -22.72436 | -42.89950 | 11712 ft | 341 kts | 76° |
| 2026-04-24 22:52 | -22.71885 | -42.87385 | 12099 ft | 357 kts | 76° |
| 2026-04-24 22:52 | -22.71312 | -42.84726 | 12466 ft | 372 kts | 75° |
| 2026-04-24 22:53 | -22.70718 | -42.81973 | 13029 ft | 380 kts | 76° |
| 2026-04-24 22:53 | -22.70110 | -42.79150 | 13637 ft | 386 kts | 76° |
| 2026-04-24 22:53 | -22.69502 | -42.76327 | 14256 ft | 390 kts | 76° |
| 2026-04-24 22:53 | -22.68880 | -42.73443 | 14868 ft | 395 kts | 76° |
| 2026-04-24 22:54 | -22.68257 | -42.70552 | 15447 ft | 400 kts | 76° |
| 2026-04-24 22:54 | -22.67626 | -42.67633 | 16027 ft | 404 kts | 76° |
| 2026-04-24 22:54 | -22.66983 | -42.64660 | 16578 ft | 408 kts | 76° |
| 2026-04-24 22:54 | -22.66338 | -42.61679 | 17123 ft | 412 kts | 76° |
| 2026-04-24 22:55 | -22.65674 | -42.58617 | 17675 ft | 416 kts | 76° |
| 2026-04-24 22:55 | -22.65012 | -42.55563 | 18172 ft | 422 kts | 76° |
| 2026-04-24 22:55 | -22.64341 | -42.52472 | 18721 ft | 425 kts | 76° |
| 2026-04-24 22:55 | -22.63657 | -42.49327 | 19205 ft | 430 kts | 76° |
| 2026-04-24 22:56 | -22.62974 | -42.46192 | 19703 ft | 435 kts | 76° |
| 2026-04-24 22:56 | -22.62283 | -42.43018 | 20231 ft | 438 kts | 76° |
| 2026-04-24 22:56 | -22.61576 | -42.39779 | 20727 ft | 442 kts | 77° |
| 2026-04-24 22:56 | -22.60866 | -42.36525 | 21226 ft | 446 kts | 77° |
| 2026-04-24 22:57 | -22.60154 | -42.33268 | 21701 ft | 449 kts | 76° |
| 2026-04-24 22:57 | -22.59352 | -42.29991 | 22145 ft | 453 kts | 73° |
| 2026-04-24 22:57 | -22.58240 | -42.26824 | 22592 ft | 456 kts | 64° |
| 2026-04-24 22:57 | -22.56652 | -42.23819 | 23016 ft | 460 kts | 54° |
| 2026-04-24 22:58 | -22.54639 | -42.21123 | 23405 ft | 463 kts | 46° |
| 2026-04-24 22:58 | -22.52304 | -42.18725 | 23846 ft | 466 kts | 40° |
| 2026-04-24 22:58 | -22.49791 | -42.16486 | 24237 ft | 469 kts | 37° |
| 2026-04-24 22:58 | -22.47210 | -42.14322 | 24699 ft | 472 kts | 36° |
| 2026-04-24 22:59 | -22.44586 | -42.12155 | 25064 ft | 476 kts | 36° |
| 2026-04-24 22:59 | -22.41970 | -42.09978 | 25491 ft | 479 kts | 37° |
| 2026-04-24 22:59 | -22.36686 | -42.05468 | 26244 ft | 487 kts | 38° |
| 2026-04-24 23:00 | -22.34064 | -42.03177 | 26651 ft | 490 kts | 38° |
| 2026-04-24 23:00 | -22.31395 | -42.00818 | 27051 ft | 492 kts | 38° |
| 2026-04-24 23:00 | -22.28762 | -41.98474 | 27496 ft | 494 kts | 38° |
| 2026-04-24 23:00 | -22.26109 | -41.96103 | 28042 ft | 493 kts | 38° |
| 2026-04-24 23:01 | -22.23486 | -41.93753 | 28553 ft | 492 kts | 38° |
| 2026-04-24 23:01 | -22.20850 | -41.91391 | 29028 ft | 492 kts | 39° |
| 2026-04-24 23:01 | -22.18207 | -41.89023 | 29102 ft | 496 kts | 39° |
| 2026-04-24 23:02 | -22.12937 | -41.84303 | 29104 ft | 493 kts | 39° |
| 2026-04-24 23:02 | -22.07655 | -41.79578 | 29104 ft | 493 kts | 39° |
| 2026-04-24 23:03 | -22.02371 | -41.74855 | 29101 ft | 492 kts | 39° |
| 2026-04-24 23:03 | -21.97093 | -41.70145 | 29103 ft | 492 kts | 39° |
| 2026-04-24 23:04 | -21.91832 | -41.65456 | 29112 ft | 493 kts | 39° |
| 2026-04-24 23:04 | -21.86556 | -41.60762 | 29113 ft | 491 kts | 39° |
| 2026-04-24 23:05 | -21.81244 | -41.56039 | 29110 ft | 493 kts | 39° |
| 2026-04-24 23:05 | -21.75966 | -41.51351 | 29107 ft | 491 kts | 39° |
| 2026-04-24 23:06 | -21.70691 | -41.46670 | 29098 ft | 493 kts | 39° |
| 2026-04-24 23:06 | -21.65395 | -41.41974 | 29098 ft | 492 kts | 39° |
| 2026-04-24 23:07 | -21.60113 | -41.37295 | 29096 ft | 492 kts | 39° |
| 2026-04-24 23:07 | -21.54835 | -41.32622 | 29098 ft | 492 kts | 38° |
| 2026-04-24 23:08 | -21.49530 | -41.27929 | 29096 ft | 491 kts | 38° |
| 2026-04-24 23:08 | -21.44264 | -41.23275 | 29095 ft | 493 kts | 39° |
| 2026-04-24 23:09 | -21.38961 | -41.18593 | 29093 ft | 492 kts | 39° |
| 2026-04-24 23:09 | -21.33669 | -41.13923 | 29093 ft | 493 kts | 39° |
| 2026-04-24 23:10 | -21.28367 | -41.09250 | 29093 ft | 492 kts | 39° |
| 2026-04-24 23:10 | -21.23069 | -41.04589 | 29092 ft | 492 kts | 39° |
| 2026-04-24 23:11 | -21.17770 | -40.99934 | 29092 ft | 492 kts | 39° |
| 2026-04-24 23:11 | -21.12562 | -40.95361 | 28877 ft | 473 kts | 38° |
| 2026-04-24 23:11 | -21.10059 | -40.93164 | 28497 ft | 461 kts | 39° |
| 2026-04-24 23:12 | -21.07616 | -40.91021 | 28057 ft | 449 kts | 38° |
| 2026-04-24 23:12 | -21.05232 | -40.88930 | 27529 ft | 439 kts | 39° |
| 2026-04-24 23:12 | -21.02890 | -40.86877 | 26990 ft | 431 kts | 39° |
| 2026-04-24 23:12 | -21.00580 | -40.84854 | 26460 ft | 422 kts | 39° |
| 2026-04-24 23:13 | -20.98334 | -40.82887 | 25930 ft | 414 kts | 39° |
| 2026-04-24 23:13 | -20.96128 | -40.80954 | 25440 ft | 410 kts | 39° |
| 2026-04-24 23:13 | -20.93908 | -40.79012 | 24898 ft | 409 kts | 39° |
| 2026-04-24 23:13 | -20.91711 | -40.77089 | 24379 ft | 407 kts | 39° |
| 2026-04-24 23:14 | -20.89545 | -40.75194 | 23868 ft | 405 kts | 39° |
| 2026-04-24 23:14 | -20.87356 | -40.73280 | 23351 ft | 403 kts | 39° |
| 2026-04-24 23:14 | -20.85206 | -40.71402 | 22843 ft | 402 kts | 39° |
| 2026-04-24 23:14 | -20.83020 | -40.69516 | 22319 ft | 400 kts | 38° |
| 2026-04-24 23:15 | -20.80795 | -40.67768 | 21806 ft | 398 kts | 33° |
| 2026-04-24 23:15 | -20.78381 | -40.66304 | 21276 ft | 397 kts | 26° |
| 2026-04-24 23:15 | -20.75885 | -40.65089 | 20753 ft | 395 kts | 22° |
| 2026-04-24 23:15 | -20.73349 | -40.63985 | 20222 ft | 393 kts | 21° |
| 2026-04-24 23:16 | -20.70779 | -40.62911 | 19691 ft | 391 kts | 21° |
| 2026-04-24 23:16 | -20.68279 | -40.61871 | 19179 ft | 389 kts | 21° |
| 2026-04-24 23:16 | -20.65744 | -40.60805 | 18646 ft | 387 kts | 21° |
| 2026-04-24 23:16 | -20.63264 | -40.59750 | 18113 ft | 380 kts | 21° |
| 2026-04-24 23:17 | -20.60815 | -40.58696 | 17608 ft | 371 kts | 22° |
| 2026-04-24 23:17 | -20.58457 | -40.57671 | 17114 ft | 363 kts | 22° |
| 2026-04-24 23:17 | -20.56166 | -40.56667 | 16634 ft | 355 kts | 22° |
| 2026-04-24 23:17 | -20.53883 | -40.55664 | 16140 ft | 348 kts | 22° |
| 2026-04-24 23:18 | -20.51689 | -40.54700 | 15663 ft | 341 kts | 22° |
| 2026-04-24 23:18 | -20.49502 | -40.53737 | 15200 ft | 338 kts | 22° |
| 2026-04-24 23:18 | -20.47323 | -40.52779 | 14704 ft | 338 kts | 22° |
| 2026-04-24 23:18 | -20.45152 | -40.51825 | 14231 ft | 337 kts | 22° |
| 2026-04-24 23:19 | -20.42992 | -40.50877 | 13757 ft | 336 kts | 22° |
| 2026-04-24 23:19 | -20.40820 | -40.49925 | 13286 ft | 334 kts | 22° |
| 2026-04-24 23:19 | -20.38685 | -40.48990 | 12800 ft | 331 kts | 21° |
| 2026-04-24 23:19 | -20.36576 | -40.48067 | 12362 ft | 323 kts | 21° |
| 2026-04-24 23:20 | -20.34493 | -40.47277 | 12074 ft | 311 kts | 16° |
| 2026-04-24 23:20 | -20.32411 | -40.46685 | 11465 ft | 311 kts | 12° |
| 2026-04-24 23:20 | -20.30306 | -40.46180 | 10790 ft | 312 kts | 11° |
| 2026-04-24 23:20 | -20.28179 | -40.45690 | 10348 ft | 304 kts | 11° |
| 2026-04-24 23:21 | -20.26184 | -40.45219 | 10136 ft | 289 kts | 12° |
| 2026-04-24 23:21 | -20.24239 | -40.44747 | 9771 ft | 282 kts | 12° |
| 2026-04-24 23:21 | -20.22334 | -40.44275 | 9424 ft | 276 kts | 12° |
| 2026-04-24 23:21 | -20.20457 | -40.43807 | 9118 ft | 274 kts | 12° |
| 2026-04-24 23:22 | -20.18630 | -40.43351 | 8681 ft | 273 kts | 12° |
| 2026-04-24 23:22 | -20.16775 | -40.42890 | 8107 ft | 274 kts | 12° |
| 2026-04-24 23:22 | -20.14926 | -40.42431 | 7585 ft | 272 kts | 12° |
| 2026-04-24 23:22 | -20.13064 | -40.41969 | 7035 ft | 271 kts | 13° |
| 2026-04-24 23:23 | -20.11279 | -40.41438 | 6643 ft | 265 kts | 22° |
| 2026-04-24 23:23 | -20.09745 | -40.40447 | 6345 ft | 257 kts | 46° |
| 2026-04-24 23:23 | -20.08827 | -40.38861 | 6028 ft | 251 kts | 71° |
| 2026-04-24 23:23 | -20.08327 | -40.37090 | 5714 ft | 247 kts | 74° |
| 2026-04-24 23:24 | -20.07840 | -40.35362 | 5537 ft | 237 kts | 73° |
| 2026-04-24 23:24 | -20.07352 | -40.33728 | 5376 ft | 228 kts | 72° |
| 2026-04-24 23:24 | -20.06870 | -40.32144 | 5127 ft | 225 kts | 72° |
| 2026-04-24 23:24 | -20.06387 | -40.30563 | 4850 ft | 222 kts | 73° |
| 2026-04-24 23:25 | -20.05918 | -40.29014 | 4573 ft | 220 kts | 72° |
| 2026-04-24 23:25 | -20.05454 | -40.27478 | 4343 ft | 215 kts | 73° |
| 2026-04-24 23:25 | -20.05010 | -40.26001 | 4244 ft | 205 kts | 73° |
| 2026-04-24 23:25 | -20.04578 | -40.24562 | 4178 ft | 203 kts | 73° |
| 2026-04-24 23:26 | -20.04207 | -40.23123 | 3991 ft | 204 kts | 82° |
| 2026-04-24 23:26 | -20.04215 | -40.21638 | 3748 ft | 201 kts | 101° |
| 2026-04-24 23:26 | -20.04649 | -40.20244 | 3574 ft | 197 kts | 114° |
| 2026-04-24 23:26 | -20.05343 | -40.18988 | 3575 ft | 199 kts | 127° |
| 2026-04-24 23:27 | -20.06374 | -40.17969 | 3250 ft | 205 kts | 146° |
| 2026-04-24 23:27 | -20.07659 | -40.17331 | 2912 ft | 205 kts | 160° |
| 2026-04-24 23:27 | -20.09026 | -40.17019 | 2648 ft | 193 kts | 174° |
| 2026-04-24 23:27 | -20.10322 | -40.17146 | 2530 ft | 183 kts | 192° |
| 2026-04-24 23:28 | -20.11536 | -40.17592 | 2535 ft | 183 kts | 202° |
| 2026-04-24 23:28 | -20.12625 | -40.18311 | 2408 ft | 187 kts | 220° |
| 2026-04-24 23:28 | -20.13474 | -40.19340 | 2287 ft | 180 kts | 234° |
| 2026-04-24 23:28 | -20.14114 | -40.20474 | 2162 ft | 176 kts | 239° |
| 2026-04-24 23:29 | -20.14700 | -40.21616 | 2059 ft | 176 kts | 240° |
| 2026-04-24 23:29 | -20.15273 | -40.22719 | 1980 ft | 169 kts | 239° |
| 2026-04-24 23:29 | -20.15845 | -40.23803 | 1869 ft | 164 kts | 239° |
| 2026-04-24 23:29 | -20.16403 | -40.24858 | 1777 ft | 163 kts | 239° |
| 2026-04-24 23:30 | -20.16947 | -40.25893 | 1692 ft | 160 kts | 239° |
| 2026-04-24 23:30 | -20.17508 | -40.26923 | 1588 ft | 159 kts | 235° |
| 2026-04-24 23:30 | -20.18252 | -40.27777 | 1337 ft | 155 kts | 213° |
| 2026-04-24 23:30 | -20.19187 | -40.28321 | 1128 ft | 152 kts | 200° |
| 2026-04-24 23:31 | -20.20192 | -40.28674 | 935 ft | 149 kts | 191° |
| 2026-04-24 23:31 | -20.21223 | -40.28729 | 666 ft | 150 kts | 171° |
| 2026-04-24 23:31 | -20.22255 | -40.28547 | 482 ft | 146 kts | 169° |
| 2026-04-24 23:31 | -20.23247 | -40.28360 | 319 ft | 145 kts | 171° |
| 2026-04-24 23:32 | -20.24242 | -40.28207 | 125 ft | 145 kts | 171° |
| 2026-04-24 23:32 | -20.25244 | -40.28055 | 16 ft | 137 kts | 172° |
| 2026-04-24 23:32 | -20.25923 | -40.27954 | 15 ft | 53 kts | 170° |
| 2026-04-24 23:32 | -20.26152 | -40.27917 | 15 ft | 29 kts | 172° |
| 2026-04-24 23:33 | -20.26352 | -40.27888 | 15 ft | 27 kts | 172° |
| 2026-04-24 23:33 | -20.26518 | -40.27882 | 15 ft | 22 kts | 191° |
| 2026-04-24 23:33 | -20.26603 | -40.27925 | 15 ft | 10 kts | 246° |
| 2026-04-24 23:33 | -20.26614 | -40.27981 | 15 ft | 7 kts | 277° |
| 2026-04-24 23:34 | -20.26599 | -40.28028 | 15 ft | 6 kts | 281° |
| 2026-04-24 23:34 | -20.26602 | -40.28072 | 15 ft | 5 kts | 261° |
| 2026-04-24 23:34 | -20.26607 | -40.28111 | 15 ft | 5 kts | 262° |
| 2026-04-24 23:34 | -20.26611 | -40.28140 | 15 ft | 2 kts | 261° |
| 2026-04-24 23:35 | -20.26612 | -40.28146 | 15 ft | 0 kts | 262° |
| 2026-04-24 23:35 | -20.26613 | -40.28154 | 15 ft | 0 kts | 263° |